Time;durP1;ratioP1;P1;durP2;ratioP2;P2;SDS_P1;SDS_P2;PMS_P1;PMS_P2;Temp;Humidity;BMP_temperature;BMP_pressure;BME280_temperature;BME280_humidity;BME280_pressure;Samples;Min_cycle;Max_cycle;Signal;HPM_P1;HPM_P2
2022/05/30 00:00:41;;;;;;;6.95;1.70;;;;;;;11.50;70.92;101418.84;5021402;28;20429;-77
2022/05/30 00:03:07;;;;;;;5.78;1.50;;;;;;;11.50;70.55;101416.25;5023793;28;20108;-76
2022/05/30 00:05:33;;;;;;;8.13;1.60;;;;;;;11.46;70.96;101412.69;5024124;28;20025;-76
2022/05/30 00:07:59;;;;;;;7.20;1.63;;;;;;;11.42;71.11;101415.16;5023694;28;20159;-77
2022/05/30 00:10:25;;;;;;;9.95;1.92;;;;;;;11.44;70.91;101421.22;5022856;28;20029;-76
2022/05/30 00:12:50;;;;;;;6.28;1.50;;;;;;;11.37;71.55;101416.69;5023493;28;20041;-76
2022/05/30 00:15:19;;;;;;;12.35;2.00;;;;;;;11.35;71.79;101419.22;5023079;28;20511;-76
2022/05/30 00:17:44;;;;;;;7.28;1.55;;;;;;;11.34;71.71;101412.28;5026252;28;20082;-77
2022/05/30 00:20:10;;;;;;;4.95;1.50;;;;;;;11.24;72.40;101411.13;5018260;28;20029;-76
2022/05/30 00:22:36;;;;;;;7.82;1.50;;;;;;;11.33;72.04;101412.25;5021516;28;20025;-76
2022/05/30 00:25:02;;;;;;;10.02;1.65;;;;;;;11.26;72.21;101412.03;5021534;28;20453;-77
2022/05/30 00:27:28;;;;;;;7.13;1.58;;;;;;;11.21;72.58;101413.56;5022893;28;20021;-76
2022/05/30 00:29:53;;;;;;;7.43;1.63;;;;;;;11.19;72.53;101419.50;5021941;28;20508;-77
2022/05/30 00:32:20;;;;;;;7.53;1.70;;;;;;;11.19;72.38;101411.78;5015920;28;20025;-77
2022/05/30 00:34:46;;;;;;;7.15;1.42;;;;;;;11.15;72.42;101397.06;5025859;28;20114;-77
2022/05/30 00:37:11;;;;;;;6.60;1.70;;;;;;;11.16;72.25;101403.94;5012004;28;20407;-77
2022/05/30 00:39:36;;;;;;;6.00;1.67;;;;;;;11.12;72.47;101396.97;5020877;28;20411;-78
2022/05/30 00:42:09;;;;;;;9.15;1.70;;;;;;;11.14;72.26;101398.75;5028064;28;20040;-77
2022/05/30 00:44:35;;;;;;;7.03;1.98;;;;;;;11.10;72.53;101399.50;5024227;28;20048;-76
2022/05/30 00:47:00;;;;;;;7.25;1.90;;;;;;;11.06;72.82;101396.75;5026933;28;20109;-77
2022/05/30 00:49:26;;;;;;;7.20;1.40;;;;;;;11.05;72.99;101398.47;5022873;28;20026;-77
2022/05/30 00:51:55;;;;;;;7.55;1.77;;;;;;;11.01;73.01;101394.00;5024236;28;20810;-77
2022/05/30 00:54:24;;;;;;;9.65;1.73;;;;;;;10.91;73.19;101390.22;5024648;28;20077;-76
2022/05/30 00:56:54;;;;;;;9.30;1.30;;;;;;;10.91;73.59;101395.38;5020790;28;20128;-76
2022/05/30 00:59:20;;;;;;;6.78;1.42;;;;;;;10.83;73.44;101390.81;5031774;28;20475;-76
2022/05/30 01:01:46;;;;;;;8.65;2.05;;;;;;;10.84;73.29;101392.53;5029101;28;20053;-76
2022/05/30 01:06:59;;;;;;;5.25;1.52;;;;;;;10.74;73.89;101394.81;5027095;28;20065;-76
2022/05/30 01:09:29;;;;;;;6.35;1.70;;;;;;;10.73;74.14;101393.03;5024195;28;20045;-76
2022/05/30 01:11:59;;;;;;;8.25;2.03;;;;;;;10.78;74.13;101395.78;5024299;28;20101;-76
2022/05/30 01:14:30;;;;;;;6.20;1.60;;;;;;;10.73;73.85;101398.16;5026001;28;20463;-77
2022/05/30 01:16:56;;;;;;;8.80;1.95;;;;;;;10.67;73.72;101395.38;5021773;28;20057;-77
2022/05/30 01:19:50;;;;;;;7.13;1.45;;;;;;;10.74;73.50;101399.94;5021024;28;20072;-77
2022/05/30 01:22:57;;;;;;;5.65;1.63;;;;;;;10.77;73.16;101399.16;5024658;28;20489;-77
2022/05/30 01:25:43;;;;;;;3.67;1.38;;;;;;;10.65;73.85;101399.59;4988837;28;20173;-76
2022/05/30 01:28:24;;;;;;;7.43;1.60;;;;;;;10.67;73.77;101391.94;5028603;28;20495;-76
2022/05/30 01:30:50;;;;;;;6.90;1.90;;;;;;;10.63;73.91;101383.25;5024631;28;20041;-77
2022/05/30 01:33:16;;;;;;;6.00;1.60;;;;;;;10.60;73.96;101383.13;5026159;28;20400;-76
2022/05/30 01:35:42;;;;;;;7.07;1.83;;;;;;;10.64;74.31;101385.00;5023568;28;20098;-77
2022/05/30 01:38:08;;;;;;;6.13;1.80;;;;;;;10.59;73.96;101378.81;5023580;28;20036;-76
2022/05/30 01:40:33;;;;;;;6.82;2.00;;;;;;;10.58;74.62;101374.50;5019251;28;20048;-76
2022/05/30 01:42:59;;;;;;;5.53;1.52;;;;;;;10.55;74.59;101369.22;5015674;28;20029;-76
2022/05/30 01:45:25;;;;;;;10.23;1.77;;;;;;;10.54;74.71;101370.03;5022282;28;20052;-76
2022/05/30 01:47:51;;;;;;;6.97;1.70;;;;;;;10.57;74.51;101364.16;5017836;28;20041;-76
2022/05/30 01:50:18;;;;;;;7.15;1.70;;;;;;;10.63;74.26;101366.94;5025469;28;20036;-76
2022/05/30 01:52:44;;;;;;;5.20;1.95;;;;;;;10.59;74.43;101371.09;5020172;28;20476;-76
2022/05/30 01:55:09;;;;;;;9.23;1.95;;;;;;;10.57;74.56;101374.44;5022792;28;20091;-76
2022/05/30 01:57:35;;;;;;;8.07;1.73;;;;;;;10.54;74.58;101371.75;5023451;28;20041;-76
2022/05/30 02:00:00;;;;;;;9.32;2.40;;;;;;;10.52;73.98;101363.97;5025667;28;20041;-76
2022/05/30 02:02:25;;;;;;;6.53;1.70;;;;;;;10.46;74.49;101372.34;5020730;28;20036;-77
2022/05/30 02:04:52;;;;;;;6.03;1.75;;;;;;;10.44;75.50;101363.72;5020009;28;20467;-76
2022/05/30 02:07:18;;;;;;;5.60;1.60;;;;;;;10.44;74.81;101368.00;5020989;28;20040;-77
2022/05/30 02:09:44;;;;;;;5.45;1.95;;;;;;;10.42;74.74;101361.88;5019862;28;20042;-77
2022/05/30 02:12:11;;;;;;;7.28;2.25;;;;;;;10.40;74.76;101360.97;5024967;28;20585;-77
2022/05/30 02:14:36;;;;;;;5.53;1.70;;;;;;;10.39;74.91;101362.66;5022607;28;20052;-76
2022/05/30 02:17:06;;;;;;;9.00;1.77;;;;;;;10.35;75.46;101365.06;5028869;28;20024;-76
2022/05/30 02:19:35;;;;;;;5.60;1.85;;;;;;;10.33;75.44;101351.28;5021046;28;20038;-76
2022/05/30 02:22:01;;;;;;;6.57;1.80;;;;;;;10.32;74.95;101358.13;5019492;28;20118;-76
2022/05/30 02:24:26;;;;;;;5.53;1.77;;;;;;;10.31;74.89;101355.47;5020308;28;20037;-76
2022/05/30 02:26:52;;;;;;;7.35;1.85;;;;;;;10.28;75.53;101361.38;5016529;28;20117;-76
2022/05/30 02:29:18;;;;;;;10.30;2.40;;;;;;;10.28;75.57;101360.53;5021472;28;20045;-76
2022/05/30 02:31:43;;;;;;;6.60;2.10;;;;;;;10.28;75.75;101363.09;5021302;28;20499;-76
2022/05/30 02:36:53;;;;;;;9.35;2.03;;;;;;;10.27;75.97;101358.78;5024854;28;20067;-76
2022/05/30 02:39:24;;;;;;;9.25;1.75;;;;;;;10.29;76.09;101360.56;5023802;28;20903;-76
2022/05/30 02:41:51;;;;;;;5.75;1.77;;;;;;;10.24;76.21;101356.94;5020166;28;20115;-76
2022/05/30 02:44:19;;;;;;;7.30;2.55;;;;;;;10.24;76.68;101358.63;5021332;28;20397;-76
2022/05/30 02:46:45;;;;;;;6.32;1.90;;;;;;;10.23;76.39;101352.63;5023659;28;20111;-76
2022/05/30 02:49:10;;;;;;;6.95;1.80;;;;;;;10.23;76.77;101354.28;5024690;28;20550;-76
2022/05/30 02:51:36;;;;;;;8.20;2.20;;;;;;;10.19;76.70;101349.06;5019644;28;20083;-76
2022/05/30 02:54:02;;;;;;;6.22;2.00;;;;;;;10.21;76.65;101351.69;5024227;28;20052;-76
2022/05/30 02:56:27;;;;;;;7.95;2.03;;;;;;;10.18;76.68;101349.84;5022847;28;20071;-77
2022/05/30 02:58:52;;;;;;;5.65;2.10;;;;;;;10.17;77.15;101342.97;5018297;28;20098;-77
2022/05/30 03:01:18;;;;;;;4.90;1.80;;;;;;;10.21;76.80;101352.53;5020632;28;20033;-77
2022/05/30 03:03:44;;;;;;;6.15;1.73;;;;;;;10.20;76.97;101355.94;5022522;28;20033;-77
2022/05/30 03:06:10;;;;;;;9.18;2.42;;;;;;;10.24;77.45;101353.50;5023753;28;20144;-76
2022/05/30 03:08:36;;;;;;;8.15;1.90;;;;;;;10.24;77.18;101353.50;5030424;28;20111;-76
2022/05/30 03:11:02;;;;;;;11.15;2.20;;;;;;;10.22;76.99;101361.13;5020591;28;20037;-76
2022/05/30 03:13:28;;;;;;;8.48;2.13;;;;;;;10.20;77.50;101353.38;5019376;28;20057;-76
2022/05/30 03:15:53;;;;;;;6.60;2.58;;;;;;;10.23;77.05;101362.00;5003437;28;20044;-75
2022/05/30 03:18:18;;;;;;;7.95;2.10;;;;;;;10.22;77.39;101361.13;5021836;28;20195;-76
2022/05/30 03:20:44;;;;;;;6.22;2.00;;;;;;;10.21;77.18;101359.38;5022249;28;20048;-76
2022/05/30 03:23:09;;;;;;;12.63;2.78;;;;;;;10.18;77.63;101362.69;5020598;28;20132;-76
2022/05/30 03:25:35;;;;;;;8.98;2.47;;;;;;;10.15;77.72;101365.16;5022839;28;20041;-76
2022/05/30 03:28:00;;;;;;;6.68;2.40;;;;;;;10.19;77.41;101369.63;5021721;28;20041;-76
2022/05/30 03:30:26;;;;;;;9.57;2.50;;;;;;;10.20;77.53;101371.34;5020116;28;20080;-76
2022/05/30 03:32:52;;;;;;;8.48;2.80;;;;;;;10.17;77.40;101368.66;5024742;28;20388;-76
2022/05/30 03:35:17;;;;;;;8.98;3.28;;;;;;;10.14;77.82;101362.53;5016744;28;20038;-76
2022/05/30 03:37:44;;;;;;;10.70;4.07;;;;;;;10.15;78.30;101365.16;5025429;28;20044;-76
2022/05/30 03:40:12;;;;;;;10.60;3.67;;;;;;;10.11;78.20;101368.44;5023763;28;20049;-76
2022/05/30 03:42:38;;;;;;;8.10;3.50;;;;;;;10.11;78.09;101367.56;5019548;28;20479;-77
2022/05/30 03:45:05;;;;;;;11.98;3.55;;;;;;;10.12;78.16;101377.00;5024269;28;20033;-76
2022/05/30 03:47:39;;;;;;;10.88;3.72;;;;;;;10.15;78.57;101378.00;5020461;28;20061;-76
2022/05/30 03:50:06;;;;;;;10.65;3.90;;;;;;;10.16;78.50;101371.19;5020005;28;20017;-76
2022/05/30 03:52:31;;;;;;;10.05;3.65;;;;;;;10.12;78.89;101377.88;5020499;28;20083;-76
2022/05/30 03:54:57;;;;;;;9.65;3.88;;;;;;;10.17;78.47;101380.63;5021477;28;20037;-76
2022/05/30 03:57:22;;;;;;;7.05;3.63;;;;;;;10.14;78.67;101376.28;5018681;28;20121;-76
2022/05/30 03:59:48;;;;;;;8.30;3.97;;;;;;;10.14;78.65;101372.81;5024320;28;20116;-76
2022/05/30 04:02:13;;;;;;;11.73;4.63;;;;;;;10.14;79.22;101371.13;5022203;28;20037;-76
2022/05/30 04:04:39;;;;;;;9.90;4.00;;;;;;;10.11;78.84;101368.44;5017788;28;20036;-76
2022/05/30 04:07:05;;;;;;;10.07;4.35;;;;;;;10.16;79.04;101371.19;5020598;28;20941;-76
2022/05/30 04:09:30;;;;;;;9.80;3.97;;;;;;;10.15;79.01;101365.16;5019188;28;20029;-76
2022/05/30 04:11:55;;;;;;;12.10;4.10;;;;;;;10.17;79.07;101366.09;5009029;28;20053;-76
2022/05/30 04:14:21;;;;;;;10.57;4.13;;;;;;;10.18;78.91;101365.25;5022789;28;20111;-76
2022/05/30 04:16:46;;;;;;;9.65;3.90;;;;;;;10.20;78.50;101367.91;5023559;28;20048;-76
2022/05/30 04:19:13;;;;;;;10.63;4.10;;;;;;;10.23;78.88;101364.56;5017394;28;20447;-76
2022/05/30 04:21:39;;;;;;;9.18;4.07;;;;;;;10.19;78.60;101363.56;5019959;28;20084;-76
2022/05/30 04:24:05;;;;;;;12.32;4.80;;;;;;;10.18;78.62;101362.69;5020841;28;20049;-77
2022/05/30 04:26:31;;;;;;;9.57;4.72;;;;;;;10.23;78.07;101367.16;5019010;28;20047;-77
2022/05/30 04:28:56;;;;;;;9.32;4.10;;;;;;;10.17;78.67;101360.94;5022707;28;20490;-77
2022/05/30 04:31:22;;;;;;;9.95;4.30;;;;;;;10.18;78.56;101362.69;5020357;28;20034;-77
2022/05/30 04:33:47;;;;;;;10.27;4.45;;;;;;;10.20;78.31;101365.34;5014455;28;20033;-76
2022/05/30 04:36:14;;;;;;;10.77;4.65;;;;;;;10.18;78.45;101367.84;5017290;28;20599;-76
2022/05/30 04:38:40;;;;;;;10.90;4.20;;;;;;;10.17;78.25;101360.94;5021546;28;20084;-76
2022/05/30 04:41:05;;;;;;;10.02;4.13;;;;;;;10.17;78.03;101371.22;5020660;28;20037;-76
2022/05/30 04:43:31;;;;;;;10.93;4.38;;;;;;;10.17;78.20;101366.09;5024498;28;20026;-76
2022/05/30 04:46:07;;;;;;;9.27;4.40;;;;;;;10.21;78.39;101379.94;5023719;28;20389;-76
2022/05/30 04:48:33;;;;;;;11.85;4.70;;;;;;;10.18;78.42;101370.41;5024527;28;20030;-76
2022/05/30 04:50:58;;;;;;;13.35;4.47;;;;;;;10.17;78.42;101372.94;5018327;28;20061;-76
2022/05/30 04:53:24;;;;;;;11.32;4.80;;;;;;;10.20;78.92;101368.78;5020926;28;20048;-76
2022/05/30 04:55:49;;;;;;;9.05;4.22;;;;;;;10.26;78.76;101377.59;5016060;28;20151;-77
2022/05/30 04:58:15;;;;;;;11.70;4.55;;;;;;;10.27;79.10;101376.75;5022855;28;20029;-76
2022/05/30 05:00:40;;;;;;;12.60;4.90;;;;;;;10.28;79.06;101381.09;5025037;28;20056;-76
2022/05/30 05:03:06;;;;;;;12.10;4.63;;;;;;;10.27;78.76;101381.91;5018242;28;20445;-77
2022/05/30 05:05:31;;;;;;;9.32;4.35;;;;;;;10.35;78.70;101390.78;4998859;28;20071;-77
2022/05/30 05:08:25;;;;;;;9.98;4.35;;;;;;;10.36;78.54;101380.53;5018667;28;20035;-76
2022/05/30 05:10:59;;;;;;;12.93;4.32;;;;;;;10.44;78.16;101393.69;5014605;28;20072;-76
2022/05/30 05:13:24;;;;;;;12.30;4.38;;;;;;;10.45;77.76;101386.03;5023650;28;20068;-77
2022/05/30 05:15:55;;;;;;;10.07;4.28;;;;;;;10.55;76.97;101379.50;5024479;28;20033;-77
2022/05/30 05:18:21;;;;;;;8.85;3.75;;;;;;;10.60;76.94;101390.84;5026208;28;20033;-76
2022/05/30 05:20:47;;;;;;;11.10;3.78;;;;;;;10.59;76.79;101389.09;5013233;28;20044;-76
2022/05/30 05:23:12;;;;;;;11.00;4.50;;;;;;;10.69;76.06;101391.19;5017105;28;20045;-76
2022/05/30 05:25:39;;;;;;;9.57;3.80;;;;;;;10.71;75.91;101391.25;5015622;28;20036;-77
2022/05/30 05:28:05;;;;;;;11.57;3.85;;;;;;;10.66;75.87;101391.06;5020954;28;20025;-78
2022/05/30 05:30:31;;;;;;;11.77;3.75;;;;;;;10.74;74.78;101388.78;5026850;28;20034;-76
2022/05/30 05:32:57;;;;;;;10.32;3.40;;;;;;;10.79;75.52;101392.38;5023457;28;20128;-76
2022/05/30 05:35:22;;;;;;;12.40;3.33;;;;;;;10.91;74.67;101399.66;5026185;28;20112;-76
2022/05/30 05:37:47;;;;;;;7.63;2.50;;;;;;;10.96;73.95;101400.69;5024043;28;20550;-76
2022/05/30 05:40:13;;;;;;;8.20;2.83;;;;;;;11.02;73.39;101400.91;5026580;28;20021;-76
2022/05/30 05:42:38;;;;;;;10.93;2.72;;;;;;;11.05;73.80;101406.19;5022722;28;20072;-76
2022/05/30 05:45:05;;;;;;;6.22;2.70;;;;;;;11.10;73.48;101402.06;5030174;28;20108;-76
2022/05/30 05:47:30;;;;;;;8.95;2.75;;;;;;;11.20;72.95;101405.81;5025480;28;20033;-77
2022/05/30 05:49:55;;;;;;;10.27;3.17;;;;;;;11.26;72.95;101406.03;5019978;28;20426;-76
2022/05/30 05:52:21;;;;;;;11.23;3.05;;;;;;;11.34;72.72;101406.28;5025360;28;20121;-77
2022/05/30 05:54:46;;;;;;;6.70;2.45;;;;;;;11.42;72.78;101410.88;5026191;28;20048;-77
2022/05/30 05:57:12;;;;;;;7.35;2.75;;;;;;;11.46;72.41;101411.81;5024786;28;20124;-76
2022/05/30 05:59:37;;;;;;;7.38;2.63;;;;;;;11.57;72.57;101413.06;5023681;28;20158;-77
2022/05/30 06:02:07;;;;;;;6.05;2.60;;;;;;;11.64;72.65;101420.16;5027753;28;20033;-76
2022/05/30 06:04:32;;;;;;;7.45;2.45;;;;;;;11.70;72.35;101416.91;5026195;28;20512;-76
2022/05/30 06:07:01;;;;;;;6.97;2.55;;;;;;;11.75;71.92;101416.22;5023078;28;20044;-77
2022/05/30 06:09:27;;;;;;;9.15;2.58;;;;;;;11.84;71.30;101419.97;5026903;28;20384;-77
2022/05/30 06:11:53;;;;;;;6.38;2.10;;;;;;;11.91;70.39;101415.06;5020288;28;20041;-78
2022/05/30 06:14:19;;;;;;;8.73;2.15;;;;;;;12.02;69.67;101416.28;5025393;28;20714;-77
2022/05/30 06:16:44;;;;;;;11.43;1.98;;;;;;;12.06;69.29;101414.66;5021315;28;20154;-77
2022/05/30 06:19:10;;;;;;;11.35;2.15;;;;;;;12.13;68.41;101421.72;5022823;28;20029;-78
2022/05/30 06:21:35;;;;;;;14.32;2.65;;;;;;;12.17;67.91;101420.13;5021807;28;20014;-78
2022/05/30 06:24:01;;;;;;;10.65;2.05;;;;;;;12.19;67.21;101418.47;5021787;28;20041;-78
2022/05/30 06:26:26;;;;;;;11.75;2.17;;;;;;;12.24;66.56;101416.91;5025176;28;20164;-77
2022/05/30 06:28:56;;;;;;;7.22;1.77;;;;;;;12.29;66.72;101410.19;5020833;28;20025;-78
2022/05/30 06:31:27;;;;;;;5.40;1.75;;;;;;;12.39;67.64;101416.50;5022247;28;20038;-78
2022/05/30 06:33:55;;;;;;;8.38;1.92;;;;;;;12.58;67.41;101413.63;5025177;28;20476;-77
2022/05/30 06:36:23;;;;;;;4.82;1.38;;;;;;;12.55;62.94;101419.56;5026142;28;20028;-79
2022/05/30 06:38:50;;;;;;;8.65;1.58;;;;;;;12.66;63.29;101417.28;5022365;28;20032;-78
2022/05/30 06:41:26;;;;;;;5.78;1.60;;;;;;;12.72;63.79;101420.03;5023442;28;20679;-77
2022/05/30 06:43:57;;;;;;;7.15;1.60;;;;;;;12.81;62.29;101415.16;5022772;28;20040;-77
2022/05/30 06:46:23;;;;;;;5.80;1.38;;;;;;;12.93;62.97;101418.91;5029175;28;20035;-78
2022/05/30 06:48:48;;;;;;;7.82;1.50;;;;;;;13.01;61.43;101418.28;5024587;28;20120;-79
2022/05/30 06:51:18;;;;;;;6.75;1.20;;;;;;;12.99;61.39;101421.66;5023344;28;20273;-77
2022/05/30 06:53:43;;;;;;;;;;;;;;;13.18;62.93;101420.44;5021088;28;20040;-77
2022/05/30 06:56:16;;;;;;;5.95;1.10;;;;;;;13.22;60.64;101417.97;5019480;28;19921;-78
2022/05/30 06:58:46;;;;;;;4.95;1.35;;;;;;;13.30;61.18;101424.25;5022705;28;20079;-79
2022/05/30 07:01:12;;;;;;;7.80;1.55;;;;;;;13.38;61.20;101429.59;5019760;28;20013;-79
2022/05/30 07:03:39;;;;;;;6.78;1.67;;;;;;;13.55;60.14;101425.72;5023097;28;21388;-79
2022/05/30 07:06:10;;;;;;;6.65;1.40;;;;;;;13.54;60.65;101425.69;5018959;28;20026;-81
2022/05/30 07:08:36;;;;;;;5.80;1.33;;;;;;;13.50;60.70;101423.88;5027610;28;20024;-79
2022/05/30 07:11:02;;;;;;;8.35;1.30;;;;;;;13.59;58.95;101426.66;5021336;28;20083;-79
2022/05/30 07:13:30;;;;;;;6.93;1.10;;;;;;;13.72;58.77;101423.56;5024058;28;20496;-78
2022/05/30 07:15:56;;;;;;;6.27;1.07;;;;;;;13.89;56.56;101418.78;5023971;28;20034;-78
2022/05/30 07:18:22;;;;;;;9.10;1.33;;;;;;;13.91;57.27;101420.56;5024100;28;20040;-78
2022/05/30 07:20:58;;;;;;;8.35;1.40;;;;;;;14.09;58.03;101420.13;5024151;28;20472;-78
2022/05/30 07:23:24;;;;;;;7.25;1.17;;;;;;;14.14;57.07;101421.09;5023241;28;20040;-77
2022/05/30 07:25:50;;;;;;;5.55;1.30;;;;;;;14.21;56.01;101422.97;5020787;28;20032;-76
2022/05/30 07:28:16;;;;;;;4.95;1.10;;;;;;;14.26;53.03;101423.09;5019427;28;20027;-76
2022/05/30 07:30:42;;;;;;;3.58;0.90;;;;;;;14.42;55.10;101425.13;5026349;28;20038;-75
2022/05/30 07:33:08;;;;;;;4.45;1.10;;;;;;;14.48;53.69;101414.09;5017622;28;20034;-75
2022/05/30 07:35:33;;;;;;;5.93;2.10;;;;;;;14.68;53.83;101428.31;5022679;28;20757;-75
2022/05/30 07:37:59;;;;;;;5.97;1.45;;;;;;;14.66;53.79;101427.41;5022852;28;20048;-75
2022/05/30 07:40:24;;;;;;;4.97;1.20;;;;;;;14.76;52.06;101428.47;5024892;28;20068;-76
2022/05/30 07:42:50;;;;;;;5.32;1.45;;;;;;;14.71;49.88;101423.19;5024331;28;20033;-75
2022/05/30 07:45:15;;;;;;;4.38;1.30;;;;;;;14.84;52.55;101423.44;5029431;28;20488;-75
2022/05/30 07:47:41;;;;;;;4.07;1.73;;;;;;;14.89;49.23;101419.22;5018074;28;20761;-75
2022/05/30 07:50:08;;;;;;;8.00;1.70;;;;;;;14.96;52.83;101421.09;5021935;28;20045;-75
2022/05/30 07:52:34;;;;;;;4.20;1.38;;;;;;;15.11;50.07;101420.50;5028051;28;20036;-76
2022/05/30 07:55:02;;;;;;;3.97;1.30;;;;;;;15.21;52.17;101425.88;5022269;28;20120;-77
2022/05/30 08:00:12;;;;;;;4.65;1.63;;;;;;;15.23;51.98;101420.72;5023238;28;20512;-77
2022/05/30 08:02:39;;;;;;;3.78;1.80;;;;;;;15.16;52.81;101418.84;5022540;28;20044;-76
2022/05/30 08:05:07;;;;;;;6.03;2.00;;;;;;;15.08;49.85;101420.44;5022199;28;20463;-75
2022/05/30 08:07:32;;;;;;;4.28;1.50;;;;;;;15.03;48.58;101423.81;5018607;28;20038;-75
2022/05/30 08:09:58;;;;;;;6.03;1.60;;;;;;;14.94;50.90;101415.88;5026236;28;20040;-76
2022/05/30 08:12:23;;;;;;;5.93;1.27;;;;;;;14.86;49.15;101417.44;5021465;28;20022;-76
2022/05/30 08:14:49;;;;;;;5.57;1.00;;;;;;;14.75;48.45;101416.38;5021975;28;20056;-75
2022/05/30 08:17:14;;;;;;;3.85;1.00;;;;;;;14.65;48.56;101417.03;5021167;28;20028;-75
2022/05/30 08:19:40;;;;;;;4.72;1.20;;;;;;;14.59;50.94;101417.78;5025896;28;20984;-75
2022/05/30 08:22:09;;;;;;;4.47;1.17;;;;;;;14.56;50.50;101419.41;5026317;28;20183;-75
2022/05/30 08:24:41;;;;;;;5.75;1.27;;;;;;;14.55;51.97;101421.13;5027333;28;20025;-76
2022/05/30 08:27:06;;;;;;;3.10;0.98;;;;;;;14.47;51.72;101418.38;5025312;28;20056;-75
2022/05/30 08:29:32;;;;;;;5.07;1.30;;;;;;;14.44;51.35;101413.13;5029287;28;20433;-75
2022/05/30 08:31:58;;;;;;;4.05;1.30;;;;;;;14.45;51.75;101426.94;5025289;28;20045;-75
2022/05/30 08:34:23;;;;;;;4.82;1.23;;;;;;;14.38;51.46;101418.19;5030159;28;20030;-76
2022/05/30 08:36:49;;;;;;;7.00;1.23;;;;;;;14.35;52.51;101425.84;5027386;28;20060;-75
2022/05/30 08:42:00;;;;;;;3.03;1.10;;;;;;;14.32;50.35;101420.63;5030323;28;20094;-75
2022/05/30 08:44:30;;;;;;;4.43;1.10;;;;;;;14.45;50.74;101430.41;5018784;28;20068;-76
2022/05/30 08:47:01;;;;;;;3.58;1.10;;;;;;;14.52;48.76;101423.66;5015544;28;20033;-75
2022/05/30 08:49:42;;;;;;;4.82;1.00;;;;;;;14.65;48.67;101425.66;5022375;28;20472;-76
2022/05/30 08:52:25;;;;;;;4.30;1.08;;;;;;;14.91;50.16;101422.72;5020693;28;20049;-76
2022/05/30 08:55:15;;;;;;;3.30;0.90;;;;;;;15.00;49.25;101423.75;5025087;28;20037;-75
2022/05/30 08:58:20;;;;;;;4.78;0.95;;;;;;;14.98;49.83;101430.63;5012364;28;20026;-75
2022/05/30 09:00:57;;;;;;;4.10;1.30;;;;;;;14.89;48.77;101435.63;5018895;28;20034;-75
2022/05/30 09:03:33;;;;;;;5.82;1.17;;;;;;;14.85;48.09;101427.75;5024586;28;20072;-75
2022/05/30 09:06:06;;;;;;;4.63;1.20;;;;;;;14.86;48.59;101432.09;5023264;28;20059;-75
2022/05/30 09:08:53;;;;;;;3.45;1.20;;;;;;;14.86;48.68;101425.19;5028094;28;20021;-75
2022/05/30 09:11:29;;;;;;;3.50;1.02;;;;;;;14.80;46.65;101442.34;5024331;28;20025;-76
2022/05/30 09:13:58;;;;;;;3.88;0.98;;;;;;;14.79;47.83;101430.22;5024008;28;20041;-75
2022/05/30 09:16:29;;;;;;;7.68;1.10;;;;;;;14.79;47.98;101428.50;5030151;28;20057;-76
2022/05/30 09:18:56;;;;;;;4.78;1.00;;;;;;;14.80;48.58;101435.44;5027097;28;20033;-74
2022/05/30 09:21:23;;;;;;;5.13;1.10;;;;;;;14.79;48.60;101433.69;5028452;28;20040;-75
2022/05/30 09:23:49;;;;;;;5.47;1.27;;;;;;;14.82;49.51;101427.72;5024609;28;20116;-75
2022/05/30 09:26:25;;;;;;;6.97;1.40;;;;;;;15.00;49.29;101436.72;5024657;28;20543;-76
2022/05/30 09:28:59;;;;;;;4.55;1.00;;;;;;;15.02;48.66;101432.44;5032030;28;20059;-75
2022/05/30 09:31:44;;;;;;;4.32;1.10;;;;;;;15.07;50.25;101431.66;5029576;28;20099;-76
2022/05/30 09:34:41;;;;;;;5.43;1.20;;;;;;;15.07;50.14;101427.34;5021556;28;20106;-71
2022/05/30 09:37:06;;;;;;;11.85;1.50;;;;;;;14.95;49.61;101433.16;5024252;28;20028;-73
2022/05/30 09:39:48;;;;;;;7.47;1.58;;;;;;;15.00;49.53;101430.66;5024817;28;20683;-72
2022/05/30 09:42:37;;;;;;;3.53;0.98;;;;;;;14.99;50.90;101429.78;5024188;28;20078;-72
2022/05/30 09:45:13;;;;;;;5.78;1.10;;;;;;;14.96;50.17;101431.44;5026298;28;20018;-73
2022/05/30 09:48:04;;;;;;;4.25;1.20;;;;;;;15.05;50.85;101431.63;5023500;28;20094;-72
2022/05/30 09:50:30;;;;;;;3.95;0.90;;;;;;;15.20;50.50;101431.03;5018628;28;20040;-76
2022/05/30 09:52:55;;;;;;;2.72;0.80;;;;;;;15.25;48.25;101434.56;5025926;28;20029;-76
2022/05/30 09:55:24;;;;;;;4.25;1.00;;;;;;;15.25;48.23;101427.69;5028662;28;20032;-76
2022/05/30 09:57:52;;;;;;;6.93;1.30;;;;;;;15.28;46.77;101426.84;5029368;28;20040;-77
2022/05/30 10:00:34;;;;;;;7.63;1.60;;;;;;;15.52;48.06;101436.75;5026903;28;20025;-76
2022/05/30 10:03:07;;;;;;;3.67;0.90;;;;;;;15.62;45.37;101427.44;5025357;28;20029;-75
2022/05/30 10:05:35;;;;;;;3.95;0.85;;;;;;;15.64;42.08;101434.41;5022848;28;20022;-76
2022/05/30 10:08:07;;;;;;;4.07;0.80;;;;;;;15.92;45.69;101432.25;5023445;28;20355;-75
2022/05/30 10:10:39;;;;;;;4.78;0.80;;;;;;;16.14;45.70;101431.75;5023349;28;20018;-76
2022/05/30 10:13:09;;;;;;;5.10;1.30;;;;;;;16.31;45.08;101432.81;5023262;28;20080;-76
2022/05/30 10:15:39;;;;;;;3.88;0.80;;;;;;;16.41;43.48;101420.84;5024779;28;20025;-76
2022/05/30 10:18:13;;;;;;;5.75;0.80;;;;;;;16.52;42.58;101429.66;5026325;28;20057;-76
2022/05/30 10:20:52;;;;;;;3.67;0.88;;;;;;;16.52;43.47;101419.25;5021753;28;20076;-76
2022/05/30 10:30:09;;;;;;;2.80;0.63;;;;;;;17.07;42.08;101425.13;5026050;28;20056;-74
2022/05/30 10:33:12;;;;;;;4.35;0.80;;;;;;;17.06;41.70;101428.59;5022800;28;20108;-74
2022/05/30 10:35:50;;;;;;;3.75;0.90;;;;;;;17.08;42.83;101420.78;5024458;28;20033;-76
2022/05/30 10:38:48;;;;;;;3.43;0.70;;;;;;;17.04;43.64;101419.00;5022683;28;20022;-75
2022/05/30 10:41:33;;;;;;;2.45;0.70;;;;;;;16.90;44.07;101426.66;5029594;28;20025;-71
2022/05/30 10:44:11;;;;;;;3.70;0.95;;;;;;;16.77;43.49;101437.78;5020265;28;20041;-71
2022/05/30 10:46:45;;;;;;;5.03;0.80;;;;;;;16.69;44.27;101431.59;5023985;28;20022;-73
2022/05/30 10:49:19;;;;;;;3.78;0.80;;;;;;;16.62;44.11;101433.22;5024026;28;20500;-70
2022/05/30 10:51:59;;;;;;;4.43;0.98;;;;;;;16.61;45.49;101437.53;5028131;28;20060;-70
2022/05/30 10:54:34;;;;;;;3.47;0.70;;;;;;;16.52;43.97;101439.16;5021306;28;20507;-73
2022/05/30 10:57:33;;;;;;;4.22;0.70;;;;;;;16.51;45.33;101438.31;5022477;28;20075;-73
2022/05/30 11:00:06;;;;;;;;;;;;;;;16.61;45.93;101440.13;5024365;28;20483;-75
2022/05/30 11:03:16;;;;;;;4.90;0.80;;;;;;;16.48;45.35;101440.84;5019241;28;19913;-74
2022/05/30 11:05:55;;;;;;;4.93;1.10;;;;;;;16.32;43.23;101441.50;5025036;28;20125;-75
2022/05/30 11:08:32;;;;;;;3.70;0.68;;;;;;;16.32;44.55;101437.19;5025617;28;20026;-75
2022/05/30 11:11:07;;;;;;;5.22;1.10;;;;;;;16.30;45.41;101435.41;5019175;28;20113;-77
2022/05/30 11:13:54;;;;;;;3.92;0.77;;;;;;;16.33;45.40;101443.25;5017261;28;20058;-76
2022/05/30 11:16:48;;;;;;;5.40;0.70;;;;;;;16.27;44.73;101432.78;5021812;28;20029;-80
2022/05/30 11:19:21;;;;;;;4.70;1.13;;;;;;;16.19;44.39;101442.16;5017450;28;20430;-79
2022/05/30 11:21:59;;;;;;;4.07;0.98;;;;;;;16.12;44.76;101441.19;5026000;28;20421;-77
2022/05/30 11:24:24;;;;;;;4.00;0.75;;;;;;;16.08;43.97;101439.44;5020903;28;20069;-76
2022/05/30 11:27:19;;;;;;;6.18;0.88;;;;;;;16.11;44.55;101439.47;5018330;28;20025;-77
2022/05/30 11:29:53;;;;;;;4.30;1.00;;;;;;;16.02;43.59;101441.94;5028173;28;20482;-78
2022/05/30 11:33:01;;;;;;;2.92;0.65;;;;;;;16.15;45.31;101436.06;5020368;28;20032;-74
2022/05/30 11:35:27;;;;;;;4.68;0.80;;;;;;;16.08;43.96;101442.91;4991258;28;20069;-74
2022/05/30 11:37:52;;;;;;;3.85;0.77;;;;;;;16.08;45.16;101439.44;5020148;28;20061;-74
2022/05/30 11:40:57;;;;;;;3.95;0.93;;;;;;;16.10;44.15;101440.31;5019748;28;20507;-74
2022/05/30 11:43:58;;;;;;;4.57;0.70;;;;;;;16.16;44.44;101440.41;5019554;28;20029;-74
2022/05/30 11:46:36;;;;;;;6.68;1.00;;;;;;;16.09;43.62;101443.78;4987515;28;20079;-74
2022/05/30 11:50:03;;;;;;;4.07;0.88;;;;;;;16.14;44.72;101447.31;5020085;28;20052;-74
2022/05/30 11:52:39;;;;;;;4.20;0.80;;;;;;;16.11;46.21;101446.38;4975675;28;20054;-74
2022/05/30 11:55:23;;;;;;;3.55;0.82;;;;;;;16.08;43.62;101449.81;5018704;28;20160;-74